sensor_id;sensor_type;location;lat;lon;timestamp;temperature;humidity
12049;DHT22;6085;49.452;8.502;2022-10-16T00:01:56;16.10;99.90
12049;DHT22;6085;49.452;8.502;2022-10-16T00:05:59;16.10;99.90
12049;DHT22;6085;49.452;8.502;2022-10-16T00:10:01;16.10;99.90
12049;DHT22;6085;49.452;8.502;2022-10-16T00:14:06;16.10;99.90
12049;DHT22;6085;49.452;8.502;2022-10-16T00:18:09;16.00;99.90
12049;DHT22;6085;49.452;8.502;2022-10-16T00:22:11;15.90;99.90
12049;DHT22;6085;49.452;8.502;2022-10-16T00:26:15;15.90;99.90
12049;DHT22;6085;49.452;8.502;2022-10-16T00:30:17;15.80;99.90
12049;DHT22;6085;49.452;8.502;2022-10-16T00:34:20;15.70;99.90
12049;DHT22;6085;49.452;8.502;2022-10-16T00:38:22;15.70;99.90
12049;DHT22;6085;49.452;8.502;2022-10-16T00:42:24;15.70;99.90
12049;DHT22;6085;49.452;8.502;2022-10-16T00:46:29;15.70;99.90
12049;DHT22;6085;49.452;8.502;2022-10-16T00:50:33;15.70;99.90
12049;DHT22;6085;49.452;8.502;2022-10-16T00:54:36;15.70;99.90
12049;DHT22;6085;49.452;8.502;2022-10-16T00:58:38;15.80;99.90
12049;DHT22;6085;49.452;8.502;2022-10-16T01:02:40;15.90;99.90
12049;DHT22;6085;49.452;8.502;2022-10-16T01:06:48;15.90;99.90
12049;DHT22;6085;49.452;8.502;2022-10-16T01:10:57;15.90;99.90
12049;DHT22;6085;49.452;8.502;2022-10-16T01:15:08;15.80;99.90
12049;DHT22;6085;49.452;8.502;2022-10-16T01:19:15;15.80;99.90
12049;DHT22;6085;49.452;8.502;2022-10-16T01:23:27;15.90;99.90
12049;DHT22;6085;49.452;8.502;2022-10-16T01:27:36;16.00;99.90
12049;DHT22;6085;49.452;8.502;2022-10-16T01:31:41;16.00;99.90
12049;DHT22;6085;49.452;8.502;2022-10-16T01:35:47;16.10;99.90
12049;DHT22;6085;49.452;8.502;2022-10-16T01:39:50;16.10;99.90
12049;DHT22;6085;49.452;8.502;2022-10-16T01:44:02;16.20;99.90
12049;DHT22;6085;49.452;8.502;2022-10-16T01:48:05;16.20;99.90
12049;DHT22;6085;49.452;8.502;2022-10-16T01:52:14;16.20;99.90
12049;DHT22;6085;49.452;8.502;2022-10-16T01:56:17;16.20;99.90
12049;DHT22;6085;49.452;8.502;2022-10-16T02:00:22;16.20;99.90
12049;DHT22;6085;49.452;8.502;2022-10-16T02:04:29;16.10;99.90
12049;DHT22;6085;49.452;8.502;2022-10-16T02:08:32;16.00;99.90
12049;DHT22;6085;49.452;8.502;2022-10-16T02:12:37;16.00;99.90
12049;DHT22;6085;49.452;8.502;2022-10-16T02:16:43;15.90;99.90
12049;DHT22;6085;49.452;8.502;2022-10-16T02:20:51;15.80;99.90
12049;DHT22;6085;49.452;8.502;2022-10-16T02:24:56;15.80;99.90
12049;DHT22;6085;49.452;8.502;2022-10-16T02:29:02;15.80;99.90
12049;DHT22;6085;49.452;8.502;2022-10-16T02:33:10;15.80;99.90
12049;DHT22;6085;49.452;8.502;2022-10-16T02:37:14;15.80;99.90
12049;DHT22;6085;49.452;8.502;2022-10-16T02:41:18;15.70;99.90
12049;DHT22;6085;49.452;8.502;2022-10-16T02:45:22;15.70;99.90
12049;DHT22;6085;49.452;8.502;2022-10-16T02:49:26;15.70;99.90
12049;DHT22;6085;49.452;8.502;2022-10-16T02:53:28;15.60;99.90
12049;DHT22;6085;49.452;8.502;2022-10-16T02:57:30;15.60;99.90
12049;DHT22;6085;49.452;8.502;2022-10-16T03:01:32;15.60;99.90
12049;DHT22;6085;49.452;8.502;2022-10-16T03:05:35;15.60;99.90
12049;DHT22;6085;49.452;8.502;2022-10-16T03:09:37;15.70;99.90
12049;DHT22;6085;49.452;8.502;2022-10-16T03:13:38;15.80;99.90
12049;DHT22;6085;49.452;8.502;2022-10-16T03:17:40;15.80;99.90
12049;DHT22;6085;49.452;8.502;2022-10-16T03:21:43;15.80;99.90
12049;DHT22;6085;49.452;8.502;2022-10-16T03:25:45;15.70;99.90
12049;DHT22;6085;49.452;8.502;2022-10-16T03:29:47;15.70;99.90
12049;DHT22;6085;49.452;8.502;2022-10-16T03:33:49;15.70;99.90
12049;DHT22;6085;49.452;8.502;2022-10-16T03:37:52;15.70;99.90
12049;DHT22;6085;49.452;8.502;2022-10-16T03:41:54;15.70;99.90
12049;DHT22;6085;49.452;8.502;2022-10-16T03:45:55;15.70;99.90
12049;DHT22;6085;49.452;8.502;2022-10-16T03:49:57;15.60;99.90
12049;DHT22;6085;49.452;8.502;2022-10-16T03:54:00;15.60;99.90
12049;DHT22;6085;49.452;8.502;2022-10-16T03:58:02;15.70;99.90
12049;DHT22;6085;49.452;8.502;2022-10-16T04:02:04;15.70;99.90
12049;DHT22;6085;49.452;8.502;2022-10-16T04:06:06;15.70;99.90
12049;DHT22;6085;49.452;8.502;2022-10-16T04:10:09;15.70;99.90
12049;DHT22;6085;49.452;8.502;2022-10-16T04:14:11;15.80;99.90
12049;DHT22;6085;49.452;8.502;2022-10-16T04:18:13;15.80;99.90
12049;DHT22;6085;49.452;8.502;2022-10-16T04:22:15;15.80;99.90
12049;DHT22;6085;49.452;8.502;2022-10-16T04:26:18;15.80;99.90
12049;DHT22;6085;49.452;8.502;2022-10-16T04:30:20;15.80;99.90
12049;DHT22;6085;49.452;8.502;2022-10-16T04:34:22;15.80;99.90
12049;DHT22;6085;49.452;8.502;2022-10-16T04:38:24;15.80;99.90
12049;DHT22;6085;49.452;8.502;2022-10-16T04:42:27;15.70;99.90
12049;DHT22;6085;49.452;8.502;2022-10-16T04:46:29;15.70;99.90
12049;DHT22;6085;49.452;8.502;2022-10-16T04:50:30;15.60;99.90
12049;DHT22;6085;49.452;8.502;2022-10-16T04:54:32;15.60;99.90
12049;DHT22;6085;49.452;8.502;2022-10-16T04:58:35;15.50;99.90
12049;DHT22;6085;49.452;8.502;2022-10-16T05:02:37;15.40;99.90
12049;DHT22;6085;49.452;8.502;2022-10-16T05:06:39;15.40;99.90
12049;DHT22;6085;49.452;8.502;2022-10-16T05:10:42;15.30;99.90
12049;DHT22;6085;49.452;8.502;2022-10-16T05:14:45;15.30;99.90
12049;DHT22;6085;49.452;8.502;2022-10-16T05:18:47;15.30;99.90
12049;DHT22;6085;49.452;8.502;2022-10-16T05:22:49;15.40;99.90
12049;DHT22;6085;49.452;8.502;2022-10-16T05:26:50;15.40;99.90
12049;DHT22;6085;49.452;8.502;2022-10-16T05:30:54;15.40;99.90
12049;DHT22;6085;49.452;8.502;2022-10-16T05:34:56;15.40;99.90
12049;DHT22;6085;49.452;8.502;2022-10-16T05:38:59;15.40;99.90
12049;DHT22;6085;49.452;8.502;2022-10-16T05:43:01;15.40;99.90
12049;DHT22;6085;49.452;8.502;2022-10-16T05:47:04;15.40;99.90
12049;DHT22;6085;49.452;8.502;2022-10-16T05:51:08;15.50;99.90
12049;DHT22;6085;49.452;8.502;2022-10-16T05:55:11;15.50;99.90
12049;DHT22;6085;49.452;8.502;2022-10-16T05:59:12;15.60;99.90
12049;DHT22;6085;49.452;8.502;2022-10-16T06:03:16;15.60;99.90
12049;DHT22;6085;49.452;8.502;2022-10-16T06:07:17;15.60;99.90
12049;DHT22;6085;49.452;8.502;2022-10-16T06:11:21;15.50;99.90
12049;DHT22;6085;49.452;8.502;2022-10-16T06:15:23;15.50;99.90
12049;DHT22;6085;49.452;8.502;2022-10-16T06:19:26;15.40;99.90
12049;DHT22;6085;49.452;8.502;2022-10-16T06:23:28;15.40;99.90
12049;DHT22;6085;49.452;8.502;2022-10-16T06:27:30;15.40;99.90
12049;DHT22;6085;49.452;8.502;2022-10-16T06:31:32;15.40;99.90
12049;DHT22;6085;49.452;8.502;2022-10-16T06:35:36;15.40;99.90
12049;DHT22;6085;49.452;8.502;2022-10-16T06:39:37;15.40;99.90
12049;DHT22;6085;49.452;8.502;2022-10-16T06:43:39;15.40;99.90
12049;DHT22;6085;49.452;8.502;2022-10-16T06:47:41;15.40;99.90
12049;DHT22;6085;49.452;8.502;2022-10-16T06:51:44;15.50;99.90
12049;DHT22;6085;49.452;8.502;2022-10-16T06:55:46;15.50;99.90
12049;DHT22;6085;49.452;8.502;2022-10-16T06:59:48;15.50;99.90
12049;DHT22;6085;49.452;8.502;2022-10-16T07:03:50;15.60;99.90
12049;DHT22;6085;49.452;8.502;2022-10-16T07:07:54;15.60;99.90
12049;DHT22;6085;49.452;8.502;2022-10-16T07:11:56;15.70;99.90
12049;DHT22;6085;49.452;8.502;2022-10-16T07:15:57;15.80;99.90
12049;DHT22;6085;49.452;8.502;2022-10-16T07:19:59;15.90;99.90
12049;DHT22;6085;49.452;8.502;2022-10-16T07:24:04;15.90;99.90
12049;DHT22;6085;49.452;8.502;2022-10-16T07:28:06;16.00;99.90
12049;DHT22;6085;49.452;8.502;2022-10-16T07:32:09;16.10;99.90
12049;DHT22;6085;49.452;8.502;2022-10-16T07:36:11;16.30;99.90
12049;DHT22;6085;49.452;8.502;2022-10-16T07:40:15;16.40;99.90
12049;DHT22;6085;49.452;8.502;2022-10-16T07:44:17;16.50;99.90
12049;DHT22;6085;49.452;8.502;2022-10-16T07:48:19;16.60;99.90
12049;DHT22;6085;49.452;8.502;2022-10-16T07:52:21;16.70;99.90
12049;DHT22;6085;49.452;8.502;2022-10-16T07:56:24;17.00;99.90
12049;DHT22;6085;49.452;8.502;2022-10-16T08:00:26;17.20;99.90
12049;DHT22;6085;49.452;8.502;2022-10-16T08:04:28;17.30;99.90
12049;DHT22;6085;49.452;8.502;2022-10-16T08:08:30;17.40;99.90
12049;DHT22;6085;49.452;8.502;2022-10-16T08:12:33;17.40;99.90
12049;DHT22;6085;49.452;8.502;2022-10-16T08:16:35;17.50;99.90
12049;DHT22;6085;49.452;8.502;2022-10-16T08:20:37;17.50;99.90
12049;DHT22;6085;49.452;8.502;2022-10-16T08:24:38;17.30;99.90
12049;DHT22;6085;49.452;8.502;2022-10-16T08:28:42;17.00;99.90
12049;DHT22;6085;49.452;8.502;2022-10-16T08:32:44;16.90;99.90
12049;DHT22;6085;49.452;8.502;2022-10-16T08:36:45;16.80;99.90
12049;DHT22;6085;49.452;8.502;2022-10-16T08:40:47;16.70;99.90
12049;DHT22;6085;49.452;8.502;2022-10-16T08:45:09;16.70;99.90
12049;DHT22;6085;49.452;8.502;2022-10-16T08:49:14;16.90;99.90
12049;DHT22;6085;49.452;8.502;2022-10-16T08:53:20;17.20;99.90
12049;DHT22;6085;49.452;8.502;2022-10-16T08:57:25;17.20;99.90
12049;DHT22;6085;49.452;8.502;2022-10-16T09:01:38;17.00;99.90
12049;DHT22;6085;49.452;8.502;2022-10-16T09:06:21;16.80;99.90
12049;DHT22;6085;49.452;8.502;2022-10-16T09:10:38;16.80;99.90
12049;DHT22;6085;49.452;8.502;2022-10-16T09:14:52;17.30;99.90
12049;DHT22;6085;49.452;8.502;2022-10-16T09:19:04;18.40;99.90
12049;DHT22;6085;49.452;8.502;2022-10-16T09:23:16;19.50;99.90
12049;DHT22;6085;49.452;8.502;2022-10-16T09:27:18;19.80;99.90
12049;DHT22;6085;49.452;8.502;2022-10-16T09:31:22;20.00;99.90
12049;DHT22;6085;49.452;8.502;2022-10-16T09:35:32;20.10;99.90
12049;DHT22;6085;49.452;8.502;2022-10-16T09:39:44;20.50;99.90
12049;DHT22;6085;49.452;8.502;2022-10-16T09:43:48;21.30;99.90
12049;DHT22;6085;49.452;8.502;2022-10-16T09:47:51;21.90;99.90
12049;DHT22;6085;49.452;8.502;2022-10-16T09:52:04;21.60;99.90
12049;DHT22;6085;49.452;8.502;2022-10-16T09:56:06;21.50;99.90
12049;DHT22;6085;49.452;8.502;2022-10-16T10:00:10;21.60;99.90
12049;DHT22;6085;49.452;8.502;2022-10-16T10:04:12;21.80;99.90
12049;DHT22;6085;49.452;8.502;2022-10-16T10:08:17;21.80;99.90
12049;DHT22;6085;49.452;8.502;2022-10-16T10:12:21;21.50;99.90
12049;DHT22;6085;49.452;8.502;2022-10-16T10:16:24;21.20;99.90
12049;DHT22;6085;49.452;8.502;2022-10-16T10:20:28;21.00;99.90
12049;DHT22;6085;49.452;8.502;2022-10-16T10:24:32;20.90;99.90
12049;DHT22;6085;49.452;8.502;2022-10-16T10:28:51;21.00;99.90
12049;DHT22;6085;49.452;8.502;2022-10-16T10:33:09;21.00;99.90
12049;DHT22;6085;49.452;8.502;2022-10-16T10:37:23;21.10;99.90
12049;DHT22;6085;49.452;8.502;2022-10-16T10:41:56;21.50;99.90
12049;DHT22;6085;49.452;8.502;2022-10-16T10:46:03;22.60;99.90
12049;DHT22;6085;49.452;8.502;2022-10-16T10:50:12;22.90;99.90
12049;DHT22;6085;49.452;8.502;2022-10-16T10:54:20;23.20;99.90
12049;DHT22;6085;49.452;8.502;2022-10-16T11:03:06;22.40;99.90
12049;DHT22;6085;49.452;8.502;2022-10-16T11:07:15;22.00;99.90
12049;DHT22;6085;49.452;8.502;2022-10-16T11:11:23;21.40;99.90
12049;DHT22;6085;49.452;8.502;2022-10-16T11:15:31;21.20;99.90
12049;DHT22;6085;49.452;8.502;2022-10-16T11:19:39;21.00;99.90
12049;DHT22;6085;49.452;8.502;2022-10-16T11:23:46;20.90;99.90
12049;DHT22;6085;49.452;8.502;2022-10-16T11:27:55;20.90;99.90
12049;DHT22;6085;49.452;8.502;2022-10-16T11:32:05;21.00;99.90
12049;DHT22;6085;49.452;8.502;2022-10-16T11:36:12;21.10;99.90
12049;DHT22;6085;49.452;8.502;2022-10-16T11:40:20;21.20;99.90
12049;DHT22;6085;49.452;8.502;2022-10-16T11:44:40;21.30;99.90
12049;DHT22;6085;49.452;8.502;2022-10-16T11:48:50;21.40;99.90
12049;DHT22;6085;49.452;8.502;2022-10-16T11:52:58;21.10;99.90
12049;DHT22;6085;49.452;8.502;2022-10-16T11:57:10;20.90;99.90
12049;DHT22;6085;49.452;8.502;2022-10-16T12:01:18;21.00;99.90
12049;DHT22;6085;49.452;8.502;2022-10-16T12:05:31;21.40;99.90
12049;DHT22;6085;49.452;8.502;2022-10-16T12:09:38;21.70;99.90
12049;DHT22;6085;49.452;8.502;2022-10-16T12:13:41;22.00;99.90
12049;DHT22;6085;49.452;8.502;2022-10-16T12:17:43;22.20;99.90
12049;DHT22;6085;49.452;8.502;2022-10-16T12:21:46;22.10;99.90
12049;DHT22;6085;49.452;8.502;2022-10-16T12:25:54;22.00;99.90
12049;DHT22;6085;49.452;8.502;2022-10-16T12:29:57;22.10;99.90
12049;DHT22;6085;49.452;8.502;2022-10-16T12:34:02;22.20;99.90
12049;DHT22;6085;49.452;8.502;2022-10-16T12:38:16;22.30;99.90
12049;DHT22;6085;49.452;8.502;2022-10-16T12:42:30;22.30;99.90
12049;DHT22;6085;49.452;8.502;2022-10-16T12:46:38;22.20;99.90
12049;DHT22;6085;49.452;8.502;2022-10-16T12:50:40;22.00;99.90
12049;DHT22;6085;49.452;8.502;2022-10-16T12:54:43;22.10;99.90
12049;DHT22;6085;49.452;8.502;2022-10-16T12:59:01;22.40;99.90
12049;DHT22;6085;49.452;8.502;2022-10-16T13:07:53;23.00;99.90
12049;DHT22;6085;49.452;8.502;2022-10-16T13:12:23;23.10;99.90
12049;DHT22;6085;49.452;8.502;2022-10-16T13:16:33;23.00;99.90
12049;DHT22;6085;49.452;8.502;2022-10-16T13:20:46;22.70;99.90
12049;DHT22;6085;49.452;8.502;2022-10-16T13:25:05;22.30;99.90
12049;DHT22;6085;49.452;8.502;2022-10-16T13:29:13;21.80;99.90
12049;DHT22;6085;49.452;8.502;2022-10-16T13:33:17;21.60;99.90
12049;DHT22;6085;49.452;8.502;2022-10-16T13:37:22;21.40;99.90
12049;DHT22;6085;49.452;8.502;2022-10-16T13:41:24;21.30;99.90
12049;DHT22;6085;49.452;8.502;2022-10-16T13:45:27;21.10;99.90
12049;DHT22;6085;49.452;8.502;2022-10-16T13:49:29;21.00;99.90
12049;DHT22;6085;49.452;8.502;2022-10-16T13:53:33;20.90;99.90
12049;DHT22;6085;49.452;8.502;2022-10-16T13:57:35;20.90;99.90
12049;DHT22;6085;49.452;8.502;2022-10-16T14:01:42;21.10;99.90
12049;DHT22;6085;49.452;8.502;2022-10-16T14:05:47;21.10;99.90
12049;DHT22;6085;49.452;8.502;2022-10-16T14:09:51;21.10;99.90
12049;DHT22;6085;49.452;8.502;2022-10-16T14:13:53;21.00;99.90
12049;DHT22;6085;49.452;8.502;2022-10-16T14:17:57;20.90;99.90
12049;DHT22;6085;49.452;8.502;2022-10-16T14:22:00;20.70;99.90
12049;DHT22;6085;49.452;8.502;2022-10-16T14:26:21;20.50;99.90
12049;DHT22;6085;49.452;8.502;2022-10-16T14:30:24;20.40;99.90
12049;DHT22;6085;49.452;8.502;2022-10-16T14:34:29;20.40;99.90
12049;DHT22;6085;49.452;8.502;2022-10-16T14:38:33;20.20;99.90
12049;DHT22;6085;49.452;8.502;2022-10-16T14:42:35;20.10;99.90
12049;DHT22;6085;49.452;8.502;2022-10-16T14:46:38;19.90;99.90
12049;DHT22;6085;49.452;8.502;2022-10-16T14:50:42;19.80;99.90
12049;DHT22;6085;49.452;8.502;2022-10-16T14:54:48;19.90;99.90
12049;DHT22;6085;49.452;8.502;2022-10-16T14:58:51;20.00;99.90
12049;DHT22;6085;49.452;8.502;2022-10-16T15:02:53;20.20;99.90
12049;DHT22;6085;49.452;8.502;2022-10-16T15:06:56;20.40;99.90
12049;DHT22;6085;49.452;8.502;2022-10-16T15:10:58;20.60;99.90
12049;DHT22;6085;49.452;8.502;2022-10-16T15:15:00;21.10;99.90
12049;DHT22;6085;49.452;8.502;2022-10-16T15:19:02;21.50;99.90
12049;DHT22;6085;49.452;8.502;2022-10-16T15:23:10;21.60;99.90
12049;DHT22;6085;49.452;8.502;2022-10-16T15:27:12;21.40;99.90
12049;DHT22;6085;49.452;8.502;2022-10-16T15:31:14;21.00;99.90
12049;DHT22;6085;49.452;8.502;2022-10-16T15:35:16;20.60;99.90
12049;DHT22;6085;49.452;8.502;2022-10-16T15:39:19;20.30;99.90
12049;DHT22;6085;49.452;8.502;2022-10-16T15:43:21;20.10;99.90
12049;DHT22;6085;49.452;8.502;2022-10-16T15:47:23;20.10;99.90
12049;DHT22;6085;49.452;8.502;2022-10-16T15:51:26;20.10;99.90
12049;DHT22;6085;49.452;8.502;2022-10-16T15:55:31;20.20;99.90
12049;DHT22;6085;49.452;8.502;2022-10-16T15:59:33;20.10;99.90
12049;DHT22;6085;49.452;8.502;2022-10-16T16:03:34;20.10;99.90
12049;DHT22;6085;49.452;8.502;2022-10-16T16:07:37;20.00;99.90
12049;DHT22;6085;49.452;8.502;2022-10-16T16:11:41;19.80;99.90
12049;DHT22;6085;49.452;8.502;2022-10-16T16:15:43;19.70;99.90
12049;DHT22;6085;49.452;8.502;2022-10-16T16:19:45;19.40;99.90
12049;DHT22;6085;49.452;8.502;2022-10-16T16:23:47;19.00;99.90
12049;DHT22;6085;49.452;8.502;2022-10-16T16:27:50;18.80;99.90
12049;DHT22;6085;49.452;8.502;2022-10-16T16:31:52;18.60;99.90
12049;DHT22;6085;49.452;8.502;2022-10-16T16:35:58;18.40;99.90
12049;DHT22;6085;49.452;8.502;2022-10-16T16:40:00;18.20;99.90
12049;DHT22;6085;49.452;8.502;2022-10-16T16:44:06;18.00;99.90
12049;DHT22;6085;49.452;8.502;2022-10-16T16:48:08;17.90;99.90
12049;DHT22;6085;49.452;8.502;2022-10-16T16:52:09;17.80;99.90
12049;DHT22;6085;49.452;8.502;2022-10-16T16:56:12;17.70;99.90
12049;DHT22;6085;49.452;8.502;2022-10-16T17:00:16;17.60;99.90
12049;DHT22;6085;49.452;8.502;2022-10-16T17:04:17;17.40;99.90
12049;DHT22;6085;49.452;8.502;2022-10-16T17:08:19;17.20;99.90
12049;DHT22;6085;49.452;8.502;2022-10-16T17:12:21;17.00;99.90
12049;DHT22;6085;49.452;8.502;2022-10-16T17:16:27;16.90;99.90
12049;DHT22;6085;49.452;8.502;2022-10-16T17:20:29;16.70;99.90
12049;DHT22;6085;49.452;8.502;2022-10-16T17:24:30;16.60;99.90
12049;DHT22;6085;49.452;8.502;2022-10-16T17:28:32;16.50;99.90
12049;DHT22;6085;49.452;8.502;2022-10-16T17:32:36;16.40;99.90
12049;DHT22;6085;49.452;8.502;2022-10-16T17:36:38;16.30;99.90
12049;DHT22;6085;49.452;8.502;2022-10-16T17:40:43;16.20;99.90
12049;DHT22;6085;49.452;8.502;2022-10-16T17:44:45;16.10;99.90
12049;DHT22;6085;49.452;8.502;2022-10-16T17:48:50;15.90;99.90
12049;DHT22;6085;49.452;8.502;2022-10-16T17:52:53;15.80;99.90
12049;DHT22;6085;49.452;8.502;2022-10-16T17:56:55;15.70;99.90
12049;DHT22;6085;49.452;8.502;2022-10-16T18:00:57;15.60;99.90
12049;DHT22;6085;49.452;8.502;2022-10-16T18:05:00;15.50;99.90
12049;DHT22;6085;49.452;8.502;2022-10-16T18:09:08;15.50;99.90
12049;DHT22;6085;49.452;8.502;2022-10-16T18:13:11;15.40;99.90
12049;DHT22;6085;49.452;8.502;2022-10-16T18:17:13;15.40;99.90
12049;DHT22;6085;49.452;8.502;2022-10-16T18:21:18;15.30;99.90
12049;DHT22;6085;49.452;8.502;2022-10-16T18:25:20;15.30;99.90
12049;DHT22;6085;49.452;8.502;2022-10-16T18:29:23;15.30;99.90
12049;DHT22;6085;49.452;8.502;2022-10-16T18:33:25;15.20;99.90
12049;DHT22;6085;49.452;8.502;2022-10-16T18:37:28;15.10;99.90
12049;DHT22;6085;49.452;8.502;2022-10-16T18:41:30;15.10;99.90
12049;DHT22;6085;49.452;8.502;2022-10-16T18:45:33;15.10;99.90
12049;DHT22;6085;49.452;8.502;2022-10-16T18:49:34;15.00;99.90
12049;DHT22;6085;49.452;8.502;2022-10-16T18:53:39;14.90;99.90
12049;DHT22;6085;49.452;8.502;2022-10-16T18:57:41;14.90;99.90
12049;DHT22;6085;49.452;8.502;2022-10-16T19:01:43;14.80;99.90
12049;DHT22;6085;49.452;8.502;2022-10-16T19:05:47;14.80;99.90
12049;DHT22;6085;49.452;8.502;2022-10-16T19:09:50;14.70;99.90
12049;DHT22;6085;49.452;8.502;2022-10-16T19:13:52;14.70;99.90
12049;DHT22;6085;49.452;8.502;2022-10-16T19:17:55;14.60;99.90
12049;DHT22;6085;49.452;8.502;2022-10-16T19:21:56;14.60;99.90
12049;DHT22;6085;49.452;8.502;2022-10-16T19:26:14;14.50;99.90
12049;DHT22;6085;49.452;8.502;2022-10-16T19:30:17;14.50;99.90
12049;DHT22;6085;49.452;8.502;2022-10-16T19:34:19;14.40;99.90
12049;DHT22;6085;49.452;8.502;2022-10-16T19:38:21;14.40;99.90
12049;DHT22;6085;49.452;8.502;2022-10-16T19:42:24;14.40;99.90
12049;DHT22;6085;49.452;8.502;2022-10-16T19:46:26;14.40;99.90
12049;DHT22;6085;49.452;8.502;2022-10-16T19:50:28;14.50;99.90
12049;DHT22;6085;49.452;8.502;2022-10-16T19:54:30;14.50;99.90
12049;DHT22;6085;49.452;8.502;2022-10-16T19:58:34;14.50;99.90
12049;DHT22;6085;49.452;8.502;2022-10-16T20:02:36;14.50;99.90
12049;DHT22;6085;49.452;8.502;2022-10-16T20:06:38;14.50;99.90
12049;DHT22;6085;49.452;8.502;2022-10-16T20:10:47;14.50;99.90
12049;DHT22;6085;49.452;8.502;2022-10-16T20:14:50;14.40;99.90
12049;DHT22;6085;49.452;8.502;2022-10-16T20:18:52;14.40;99.90
12049;DHT22;6085;49.452;8.502;2022-10-16T20:22:53;14.40;99.90
12049;DHT22;6085;49.452;8.502;2022-10-16T20:26:55;14.40;99.90
12049;DHT22;6085;49.452;8.502;2022-10-16T20:31:05;14.40;99.90
12049;DHT22;6085;49.452;8.502;2022-10-16T20:35:07;14.30;99.90
12049;DHT22;6085;49.452;8.502;2022-10-16T20:39:10;14.30;99.90
12049;DHT22;6085;49.452;8.502;2022-10-16T20:43:14;14.20;99.90
12049;DHT22;6085;49.452;8.502;2022-10-16T20:47:18;14.30;99.90
12049;DHT22;6085;49.452;8.502;2022-10-16T20:51:23;14.20;99.90
12049;DHT22;6085;49.452;8.502;2022-10-16T20:55:25;14.20;99.90
12049;DHT22;6085;49.452;8.502;2022-10-16T20:59:27;14.20;99.90
12049;DHT22;6085;49.452;8.502;2022-10-16T21:03:30;14.10;99.90
12049;DHT22;6085;49.452;8.502;2022-10-16T21:07:32;14.10;99.90
12049;DHT22;6085;49.452;8.502;2022-10-16T21:11:35;14.10;99.90
12049;DHT22;6085;49.452;8.502;2022-10-16T21:15:37;14.00;99.90
12049;DHT22;6085;49.452;8.502;2022-10-16T21:19:40;14.00;99.90
12049;DHT22;6085;49.452;8.502;2022-10-16T21:23:42;13.90;99.90
12049;DHT22;6085;49.452;8.502;2022-10-16T21:27:44;13.90;99.90
12049;DHT22;6085;49.452;8.502;2022-10-16T21:31:46;13.80;99.90
12049;DHT22;6085;49.452;8.502;2022-10-16T21:35:49;13.70;99.90
12049;DHT22;6085;49.452;8.502;2022-10-16T21:39:54;13.70;99.90
12049;DHT22;6085;49.452;8.502;2022-10-16T21:43:56;13.70;99.90
12049;DHT22;6085;49.452;8.502;2022-10-16T21:47:58;13.70;99.90
12049;DHT22;6085;49.452;8.502;2022-10-16T21:52:02;13.60;99.90
12049;DHT22;6085;49.452;8.502;2022-10-16T21:56:06;13.50;99.90
12049;DHT22;6085;49.452;8.502;2022-10-16T22:00:13;13.50;99.90
12049;DHT22;6085;49.452;8.502;2022-10-16T22:04:15;13.40;99.90
12049;DHT22;6085;49.452;8.502;2022-10-16T22:08:19;13.40;99.90
12049;DHT22;6085;49.452;8.502;2022-10-16T22:12:20;13.30;99.90
12049;DHT22;6085;49.452;8.502;2022-10-16T22:16:24;13.30;99.90
12049;DHT22;6085;49.452;8.502;2022-10-16T22:20:26;13.30;99.90
12049;DHT22;6085;49.452;8.502;2022-10-16T22:24:29;13.30;99.90
12049;DHT22;6085;49.452;8.502;2022-10-16T22:28:31;13.20;99.90
12049;DHT22;6085;49.452;8.502;2022-10-16T22:32:33;13.20;99.90
12049;DHT22;6085;49.452;8.502;2022-10-16T22:36:35;13.20;99.90
12049;DHT22;6085;49.452;8.502;2022-10-16T22:40:39;13.10;99.90
12049;DHT22;6085;49.452;8.502;2022-10-16T22:44:41;13.10;99.90
12049;DHT22;6085;49.452;8.502;2022-10-16T22:48:43;13.20;99.90
12049;DHT22;6085;49.452;8.502;2022-10-16T22:52:44;13.20;99.90
12049;DHT22;6085;49.452;8.502;2022-10-16T22:56:48;13.20;99.90
12049;DHT22;6085;49.452;8.502;2022-10-16T23:00:50;13.30;99.90
12049;DHT22;6085;49.452;8.502;2022-10-16T23:04:52;13.40;99.90
12049;DHT22;6085;49.452;8.502;2022-10-16T23:08:55;13.70;99.90
12049;DHT22;6085;49.452;8.502;2022-10-16T23:12:59;13.80;99.90
12049;DHT22;6085;49.452;8.502;2022-10-16T23:17:01;13.80;99.90
12049;DHT22;6085;49.452;8.502;2022-10-16T23:21:06;13.80;99.90
12049;DHT22;6085;49.452;8.502;2022-10-16T23:25:09;13.90;99.90
12049;DHT22;6085;49.452;8.502;2022-10-16T23:29:12;14.00;99.90
12049;DHT22;6085;49.452;8.502;2022-10-16T23:33:14;14.10;99.90
12049;DHT22;6085;49.452;8.502;2022-10-16T23:37:15;14.30;99.90
12049;DHT22;6085;49.452;8.502;2022-10-16T23:41:18;14.40;99.90
12049;DHT22;6085;49.452;8.502;2022-10-16T23:45:21;14.50;99.90
12049;DHT22;6085;49.452;8.502;2022-10-16T23:49:23;14.60;99.90
12049;DHT22;6085;49.452;8.502;2022-10-16T23:53:25;14.60;99.90
12049;DHT22;6085;49.452;8.502;2022-10-16T23:57:27;14.60;99.90
